Time;durP1;ratioP1;P1;durP2;ratioP2;P2;SDS_P1;SDS_P2;PMS_P1;PMS_P2;Temp;Humidity;BMP_temperature;BMP_pressure;BME280_temperature;BME280_humidity;BME280_pressure;Samples;Min_cycle;Max_cycle;Signal;HPM_P1;HPM_P2
2023/08/05 00:01:59;;;;;;;4.95;2.63;;;;;;;;;;5074956;28;20024;-84
2023/08/05 00:04:24;;;;;;;4.93;2.97;;;;;;;;;;5074273;28;20126;-85
2023/08/05 00:06:53;;;;;;;4.43;2.85;;;;;;;;;;5074648;28;20044;-85
2023/08/05 00:09:18;;;;;;;4.38;2.95;;;;;;;;;;5086196;28;20020;-84
2023/08/05 00:11:43;;;;;;;3.38;2.50;;;;;;;;;;5064323;28;20114;-85
2023/08/05 00:14:09;;;;;;;8.25;3.10;;;;;;;;;;5073690;28;20047;-84
2023/08/05 00:16:34;;;;;;;5.45;2.90;;;;;;;;;;5073845;28;20016;-84
2023/08/05 00:19:02;;;;;;;6.13;3.38;;;;;;;;;;5074122;28;20111;-85
2023/08/05 00:21:30;;;;;;;6.40;3.80;;;;;;;;;;5076173;28;20024;-84
2023/08/05 00:23:55;;;;;;;6.60;2.90;;;;;;;;;;5073670;28;20106;-85
2023/08/05 00:26:20;;;;;;;5.90;2.50;;;;;;;;;;5074608;28;20055;-85
2023/08/05 00:28:46;;;;;;;5.22;2.83;;;;;;;;;;5081528;28;20114;-85
2023/08/05 00:31:14;;;;;;;4.03;2.78;;;;;;;;;;5076327;28;20383;-85
2023/08/05 00:33:40;;;;;;;4.00;2.63;;;;;;;;;;5074429;28;20023;-85
2023/08/05 00:36:05;;;;;;;4.90;2.75;;;;;;;;;;5074115;28;20099;-85
2023/08/05 00:38:33;;;;;;;4.15;2.45;;;;;;;;;;5074370;28;20021;-84
2023/08/05 00:40:59;;;;;;;4.38;2.85;;;;;;;;;;5076183;28;20012;-85
2023/08/05 00:43:24;;;;;;;4.88;3.05;;;;;;;;;;5078854;28;20493;-85
2023/08/05 00:45:49;;;;;;;4.60;2.90;;;;;;;;;;5079070;28;20039;-85
2023/08/05 00:48:15;;;;;;;5.15;2.50;;;;;;;;;;5078853;28;20039;-85
2023/08/05 00:50:40;;;;;;;4.80;3.10;;;;;;;;;;5096263;28;20024;-85
2023/08/05 00:53:06;;;;;;;5.70;2.70;;;;;;;;;;5082361;28;20032;-84
2023/08/05 00:55:32;;;;;;;4.70;2.60;;;;;;;;;;5079945;28;20073;-84
2023/08/05 00:57:57;;;;;;;4.38;2.60;;;;;;;;;;5096176;28;20031;-85
2023/08/05 01:00:22;;;;;;;4.97;2.60;;;;;;;;;;5079158;28;20127;-84
2023/08/05 01:02:48;;;;;;;3.40;2.25;;;;;;;;;;5079029;28;20020;-85
2023/08/05 01:05:16;;;;;;;5.47;2.65;;;;;;;;;;5078662;28;20107;-84
2023/08/05 01:07:43;;;;;;;4.15;2.75;;;;;;;;;;5096593;28;20016;-84
2023/08/05 01:10:08;;;;;;;7.45;3.22;;;;;;;;;;5077799;28;20032;-84
2023/08/05 01:12:37;;;;;;;4.50;2.97;;;;;;;;;;5078698;28;20023;-85
2023/08/05 01:15:02;;;;;;;5.30;2.65;;;;;;;;;;5077989;28;20052;-85
2023/08/05 01:17:27;;;;;;;9.35;2.67;;;;;;;;;;5075898;28;20469;-85
2023/08/05 01:19:53;;;;;;;5.00;2.88;;;;;;;;;;5077357;28;20027;-85
2023/08/05 01:22:21;;;;;;;5.38;2.58;;;;;;;;;;5077924;28;20471;-85
2023/08/05 01:24:49;;;;;;;7.65;2.85;;;;;;;;;;5077255;28;20476;-85
2023/08/05 01:27:15;;;;;;;6.88;3.08;;;;;;;;;;5076955;28;20074;-85
2023/08/05 01:29:40;;;;;;;5.63;2.83;;;;;;;;;;5076957;28;20044;-85
2023/08/05 01:32:09;;;;;;;9.85;3.60;;;;;;;;;;5077308;28;20508;-85
2023/08/05 01:34:36;;;;;;;7.85;3.05;;;;;;;;;;5093355;28;20027;-85
2023/08/05 01:37:04;;;;;;;13.85;3.63;;;;;;;;;;5077114;28;20023;-85
2023/08/05 01:39:29;;;;;;;6.75;3.60;;;;;;;;;;5076789;28;20465;-85
2023/08/05 01:41:54;;;;;;;8.02;3.83;;;;;;;;;;5077161;28;20023;-84
2023/08/05 01:44:20;;;;;;;7.38;3.40;;;;;;;;;;5075493;28;20020;-85
2023/08/05 01:46:45;;;;;;;9.60;3.28;;;;;;;;;;5076704;28;20423;-85
2023/08/05 01:49:10;;;;;;;9.02;3.55;;;;;;;;;;5095062;28;20020;-84
2023/08/05 01:51:35;;;;;;;9.20;3.03;;;;;;;;;;5077208;28;20024;-85
2023/08/05 01:54:01;;;;;;;3.90;2.60;;;;;;;;;;5093621;28;20020;-84
2023/08/05 01:56:31;;;;;;;4.63;2.78;;;;;;;;;;5075744;28;20397;-85
2023/08/05 01:58:57;;;;;;;5.00;2.60;;;;;;;;;;5079588;28;20030;-84
2023/08/05 02:01:22;;;;;;;5.55;2.63;;;;;;;;;;5088907;28;20459;-84
2023/08/05 02:03:47;;;;;;;4.57;2.83;;;;;;;;;;5094997;28;20024;-84
2023/08/05 02:06:14;;;;;;;7.13;2.90;;;;;;;;;;5077117;28;20042;-84
2023/08/05 02:08:42;;;;;;;5.80;2.63;;;;;;;;;;5097559;28;20386;-84
2023/08/05 02:11:13;;;;;;;6.38;2.90;;;;;;;;;;5078916;28;20035;-84
2023/08/05 02:13:41;;;;;;;6.20;3.13;;;;;;;;;;5094786;28;20035;-84
2023/08/05 02:16:07;;;;;;;11.65;3.20;;;;;;;;;;5077841;28;20058;-84
2023/08/05 02:18:32;;;;;;;5.22;2.92;;;;;;;;;;5077768;28;20024;-84
2023/08/05 02:20:59;;;;;;;5.95;3.03;;;;;;;;;;5077906;28;20028;-85
2023/08/05 02:23:24;;;;;;;7.05;3.55;;;;;;;;;;5096689;28;20012;-85
2023/08/05 02:25:49;;;;;;;5.82;3.47;;;;;;;;;;5077088;28;20023;-85
2023/08/05 02:28:15;;;;;;;6.05;3.30;;;;;;;;;;5076240;28;20024;-84
2023/08/05 02:30:41;;;;;;;8.07;2.85;;;;;;;;;;5088225;28;20053;-84
2023/08/05 02:33:06;;;;;;;4.88;3.03;;;;;;;;;;5115569;28;20051;-85
2023/08/05 02:35:32;;;;;;;4.90;2.90;;;;;;;;;;5102757;28;20015;-84
2023/08/05 02:37:57;;;;;;;5.72;2.70;;;;;;;;;;5088028;28;20031;-84
2023/08/05 02:40:23;;;;;;;5.43;3.42;;;;;;;;;;5107961;28;20115;-85
2023/08/05 02:42:48;;;;;;;7.90;3.25;;;;;;;;;;5075927;28;20028;-85
2023/08/05 02:45:13;;;;;;;6.40;3.33;;;;;;;;;;5076177;28;20020;-85
2023/08/05 02:47:39;;;;;;;6.13;3.28;;;;;;;;;;5075378;28;20032;-84
2023/08/05 02:50:07;;;;;;;6.85;3.88;;;;;;;;;;5075706;28;20062;-84
2023/08/05 02:52:33;;;;;;;7.18;3.60;;;;;;;;;;5076065;28;20114;-84
2023/08/05 02:55:00;;;;;;;5.35;3.22;;;;;;;;;;5075974;28;20024;-84
2023/08/05 02:57:26;;;;;;;8.60;3.53;;;;;;;;;;5075535;28;20467;-85
2023/08/05 02:59:51;;;;;;;9.05;3.65;;;;;;;;;;5075594;28;20031;-85
2023/08/05 03:02:16;;;;;;;6.03;3.75;;;;;;;;;;5075282;28;20020;-85
2023/08/05 03:04:42;;;;;;;6.28;3.55;;;;;;;;;;5074861;28;20027;-85
2023/08/05 03:07:07;;;;;;;9.20;3.67;;;;;;;;;;5073992;28;20253;-85
2023/08/05 03:09:32;;;;;;;6.90;3.33;;;;;;;;;;5075072;28;20046;-84
2023/08/05 03:11:58;;;;;;;11.00;3.60;;;;;;;;;;5075315;28;20027;-84
2023/08/05 03:14:23;;;;;;;7.00;3.05;;;;;;;;;;5093302;28;20012;-85
2023/08/05 03:16:48;;;;;;;5.72;3.10;;;;;;;;;;5092012;28;20309;-85
2023/08/05 03:19:17;;;;;;;6.47;3.42;;;;;;;;;;5075660;28;20019;-85
2023/08/05 03:21:42;;;;;;;9.50;3.80;;;;;;;;;;5075443;28;20027;-85
2023/08/05 03:24:08;;;;;;;4.90;3.13;;;;;;;;;;5093624;28;20051;-85
2023/08/05 03:26:33;;;;;;;7.45;3.30;;;;;;;;;;5075416;28;20575;-84
2023/08/05 03:28:58;;;;;;;4.97;3.13;;;;;;;;;;5076239;28;20087;-85
2023/08/05 03:31:24;;;;;;;5.30;3.10;;;;;;;;;;5076261;28;20099;-84
2023/08/05 03:33:49;;;;;;;10.48;3.60;;;;;;;;;;5076744;28;20039;-83
2023/08/05 03:36:18;;;;;;;6.57;3.08;;;;;;;;;;5077589;28;20101;-85
2023/08/05 03:38:43;;;;;;;6.13;3.35;;;;;;;;;;5076430;28;20030;-84
2023/08/05 03:41:08;;;;;;;9.73;3.80;;;;;;;;;;5093848;28;20135;-85
2023/08/05 03:43:34;;;;;;;7.75;4.10;;;;;;;;;;5076220;28;20016;-84
2023/08/05 03:45:59;;;;;;;6.28;3.75;;;;;;;;;;5076243;28;20046;-83
2023/08/05 03:48:24;;;;;;;6.47;3.92;;;;;;;;;;5075192;28;20077;-84
2023/08/05 03:50:50;;;;;;;6.00;3.92;;;;;;;;;;5093141;28;20671;-84
2023/08/05 03:53:15;;;;;;;7.13;3.55;;;;;;;;;;5090514;28;20023;-85
2023/08/05 03:55:40;;;;;;;7.25;3.70;;;;;;;;;;5074651;28;20031;-84
2023/08/05 03:58:07;;;;;;;9.70;3.72;;;;;;;;;;5092136;28;20020;-84
2023/08/05 04:00:32;;;;;;;8.10;4.28;;;;;;;;;;5074616;28;20065;-84
2023/08/05 04:02:58;;;;;;;7.53;3.47;;;;;;;;;;5076893;28;20036;-84
2023/08/05 04:05:23;;;;;;;10.15;3.72;;;;;;;;;;5072979;28;20441;-84
2023/08/05 04:07:48;;;;;;;8.85;3.60;;;;;;;;;;5074274;28;20036;-84
2023/08/05 04:10:14;;;;;;;6.28;3.20;;;;;;;;;;5074423;28;20123;-84
2023/08/05 04:12:39;;;;;;;8.32;3.33;;;;;;;;;;5073168;28;20425;-84
2023/08/05 04:15:07;;;;;;;6.15;3.30;;;;;;;;;;5071589;28;20020;-84
2023/08/05 04:17:35;;;;;;;8.80;3.85;;;;;;;;;;5071390;28;20371;-84
2023/08/05 04:20:03;;;;;;;5.53;3.55;;;;;;;;;;5073973;28;20051;-84
2023/08/05 04:22:30;;;;;;;8.15;3.55;;;;;;;;;;5075390;28;20120;-85
2023/08/05 04:24:57;;;;;;;6.10;3.33;;;;;;;;;;5073606;28;20429;-83
2023/08/05 04:27:24;;;;;;;8.18;3.60;;;;;;;;;;5074038;28;20545;-84
2023/08/05 04:29:50;;;;;;;5.00;3.33;;;;;;;;;;5073898;28;20382;-84
2023/08/05 04:32:15;;;;;;;8.43;3.85;;;;;;;;;;5086851;28;20019;-84
2023/08/05 04:34:40;;;;;;;7.05;3.70;;;;;;;;;;5074313;28;20077;-84
2023/08/05 04:37:16;;;;;;;6.75;3.60;;;;;;;;;;5091780;28;20020;-84
2023/08/05 04:39:42;;;;;;;6.65;3.72;;;;;;;;;;5079916;28;20157;-84
2023/08/05 04:42:07;;;;;;;7.97;4.00;;;;;;;;;;5074692;28;20047;-83
2023/08/05 04:44:33;;;;;;;7.53;4.28;;;;;;;;;;5073677;28;20024;-84
2023/08/05 04:46:59;;;;;;;8.98;4.68;;;;;;;;;;5090197;28;20109;-84
2023/08/05 04:49:24;;;;;;;12.73;5.25;;;;;;;;;;5075937;28;20054;-84
2023/08/05 04:51:49;;;;;;;9.63;4.70;;;;;;;;;;5074923;28;20020;-84
2023/08/05 04:54:15;;;;;;;13.27;5.60;;;;;;;;;;5075324;28;20093;-84
2023/08/05 04:56:40;;;;;;;7.95;4.82;;;;;;;;;;5077314;28;20023;-82
2023/08/05 04:59:06;;;;;;;8.55;4.30;;;;;;;;;;5081002;28;20032;-84
2023/08/05 05:01:32;;;;;;;8.30;4.55;;;;;;;;;;5080192;28;20021;-84
2023/08/05 05:03:58;;;;;;;8.30;4.05;;;;;;;;;;5075495;28;20028;-84
2023/08/05 05:06:24;;;;;;;9.48;4.45;;;;;;;;;;5075704;28;20020;-84
2023/08/05 05:08:49;;;;;;;9.57;4.55;;;;;;;;;;5073082;28;20024;-84
2023/08/05 05:11:14;;;;;;;14.02;5.15;;;;;;;;;;5075670;28;20441;-84
2023/08/05 05:13:40;;;;;;;11.80;4.90;;;;;;;;;;5074248;28;20107;-84
2023/08/05 05:16:06;;;;;;;12.48;4.63;;;;;;;;;;5074089;28;20021;-83
2023/08/05 05:18:31;;;;;;;10.00;4.93;;;;;;;;;;5073592;28;20028;-84
2023/08/05 05:20:57;;;;;;;10.77;5.28;;;;;;;;;;5091529;28;20031;-84
2023/08/05 05:23:22;;;;;;;13.15;4.88;;;;;;;;;;5073437;28;20035;-84
2023/08/05 05:25:47;;;;;;;9.13;5.38;;;;;;;;;;5072086;28;20031;-84
2023/08/05 05:28:13;;;;;;;10.90;5.22;;;;;;;;;;5074563;28;20467;-84
2023/08/05 05:30:38;;;;;;;10.95;4.97;;;;;;;;;;5076934;28;20012;-84
2023/08/05 05:33:09;;;;;;;8.80;5.05;;;;;;;;;;5091027;28;20100;-84
2023/08/05 05:35:34;;;;;;;11.68;6.07;;;;;;;;;;5092851;28;20027;-84
2023/08/05 05:37:59;;;;;;;11.13;5.28;;;;;;;;;;5076526;28;20016;-84
2023/08/05 05:40:25;;;;;;;11.18;5.57;;;;;;;;;;5076939;28;20027;-84
2023/08/05 05:42:50;;;;;;;9.73;5.15;;;;;;;;;;5076072;28;20637;-84
2023/08/05 05:45:21;;;;;;;10.38;5.57;;;;;;;;;;5073002;28;20471;-84
2023/08/05 05:47:46;;;;;;;9.32;4.90;;;;;;;;;;5075501;28;20024;-84
2023/08/05 05:50:12;;;;;;;16.38;6.55;;;;;;;;;;5076975;28;20091;-84
2023/08/05 05:52:37;;;;;;;12.80;5.75;;;;;;;;;;5076676;28;20425;-84
2023/08/05 05:55:03;;;;;;;12.35;5.78;;;;;;;;;;5076576;28;20066;-85
2023/08/05 05:57:29;;;;;;;11.48;5.40;;;;;;;;;;5077764;28;20015;-88
2023/08/05 05:59:58;;;;;;;11.02;5.45;;;;;;;;;;5087321;28;20024;-82
2023/08/05 06:02:24;;;;;;;13.40;5.40;;;;;;;;;;5076327;28;20028;-82
2023/08/05 06:04:53;;;;;;;10.27;5.30;;;;;;;;;;5076387;28;20027;-82
2023/08/05 06:07:20;;;;;;;12.30;4.68;;;;;;;;;;5078178;28;20043;-83
2023/08/05 06:09:53;;;;;;;10.63;5.70;;;;;;;;;;5088058;28;20103;-85
2023/08/05 06:12:22;;;;;;;14.90;6.22;;;;;;;;;;5093098;28;20097;-87
2023/08/05 06:14:49;;;;;;;11.93;5.35;;;;;;;;;;5104762;28;20020;-86
2023/08/05 06:17:17;;;;;;;13.45;5.82;;;;;;;;;;5102735;28;20023;-83
2023/08/05 06:19:44;;;;;;;12.13;5.53;;;;;;;;;;5091092;28;20100;-83
2023/08/05 06:22:11;;;;;;;12.73;5.97;;;;;;;;;;5091666;28;20024;-84
2023/08/05 06:24:40;;;;;;;11.30;5.57;;;;;;;;;;5077551;28;20020;-87
2023/08/05 06:27:08;;;;;;;10.75;5.47;;;;;;;;;;5073298;28;20027;-84
2023/08/05 06:29:33;;;;;;;7.45;4.13;;;;;;;;;;5072244;28;20086;-84
2023/08/05 06:32:00;;;;;;;15.85;5.88;;;;;;;;;;5084414;28;20024;-83
2023/08/05 06:34:25;;;;;;;15.73;6.38;;;;;;;;;;5076035;28;20114;-83
2023/08/05 06:36:51;;;;;;;9.30;4.88;;;;;;;;;;5076192;28;20107;-83
2023/08/05 06:39:16;;;;;;;15.02;5.38;;;;;;;;;;5072597;28;20027;-83
2023/08/05 06:41:44;;;;;;;8.35;5.10;;;;;;;;;;5081847;28;20031;-83
2023/08/05 06:44:11;;;;;;;12.93;6.25;;;;;;;;;;5083346;28;20422;-83
2023/08/05 06:46:42;;;;;;;9.20;4.53;;;;;;;;;;5075522;28;20107;-83
2023/08/05 06:49:09;;;;;;;8.90;4.68;;;;;;;;;;5070490;28;20043;-82
2023/08/05 06:51:34;;;;;;;15.10;5.10;;;;;;;;;;5073863;28;20020;-82
2023/08/05 06:54:00;;;;;;;11.23;5.45;;;;;;;;;;5075945;28;20545;-82
2023/08/05 06:56:25;;;;;;;10.93;5.47;;;;;;;;;;5075792;28;20111;-83
2023/08/05 06:58:50;;;;;;;10.30;3.05;;;;;;;;;;5093300;28;20020;-83
2023/08/05 07:01:16;;;;;;;9.35;4.07;;;;;;;;;;5075385;28;20016;-82
2023/08/05 07:03:42;;;;;;;13.05;3.88;;;;;;;;;;5084125;28;20038;-82
2023/08/05 07:06:08;;;;;;;8.65;4.25;;;;;;;;;;5084217;28;20143;-83
2023/08/05 07:08:33;;;;;;;9.65;4.25;;;;;;;;;;5095161;28;20024;-83
2023/08/05 07:10:59;;;;;;;11.00;5.13;;;;;;;;;;5084994;28;20023;-83
2023/08/05 07:13:29;;;;;;;9.13;4.65;;;;;;;;;;5074547;28;20027;-82
2023/08/05 07:15:59;;;;;;;9.98;4.30;;;;;;;;;;5081802;28;20047;-83
2023/08/05 07:18:24;;;;;;;10.43;3.97;;;;;;;;;;5071919;28;20470;-83
2023/08/05 07:20:50;;;;;;;9.10;4.53;;;;;;;;;;5080224;28;20016;-83
2023/08/05 07:23:15;;;;;;;10.35;5.10;;;;;;;;;;5080562;28;20501;-82
2023/08/05 07:25:41;;;;;;;8.77;3.25;;;;;;;;;;5074888;28;20012;-83
2023/08/05 07:28:06;;;;;;;7.95;3.78;;;;;;;;;;5071333;28;20024;-83
2023/08/05 07:30:33;;;;;;;9.88;4.85;;;;;;;;;;5073986;28;20047;-83
2023/08/05 07:32:59;;;;;;;12.02;4.50;;;;;;;;;;5071989;28;20039;-83
2023/08/05 07:35:28;;;;;;;11.43;4.63;;;;;;;;;;5076150;28;20451;-83
2023/08/05 07:37:54;;;;;;;6.88;3.33;;;;;;;;;;5076766;28;20084;-81
2023/08/05 07:40:19;;;;;;;11.52;4.15;;;;;;;;;;5100282;28;20047;-83
2023/08/05 07:42:46;;;;;;;9.25;3.58;;;;;;;;;;5078902;28;20062;-82
2023/08/05 07:45:16;;;;;;;6.95;3.42;;;;;;;;;;5081144;28;20050;-83
2023/08/05 07:47:42;;;;;;;11.98;4.57;;;;;;;;;;5096001;28;20119;-82
2023/08/05 07:50:10;;;;;;;7.82;3.67;;;;;;;;;;5092582;28;20038;-82
2023/08/05 07:52:41;;;;;;;7.25;3.83;;;;;;;;;;5088955;28;20016;-83
2023/08/05 07:55:09;;;;;;;12.43;4.55;;;;;;;;;;5088143;28;20042;-82
2023/08/05 07:57:35;;;;;;;9.98;4.13;;;;;;;;;;5072204;28;20383;-83
2023/08/05 08:00:04;;;;;;;11.73;4.30;;;;;;;;;;5072497;28;20540;-82
2023/08/05 08:02:29;;;;;;;9.32;4.20;;;;;;;;;;5074329;28;20031;-83
2023/08/05 08:04:55;;;;;;;7.30;3.60;;;;;;;;;;5074335;28;20020;-82
2023/08/05 08:07:23;;;;;;;7.85;3.22;;;;;;;;;;5092328;28;20130;-83
2023/08/05 08:09:48;;;;;;;8.05;3.58;;;;;;;;;;5088179;28;20035;-82
2023/08/05 08:12:15;;;;;;;8.38;3.08;;;;;;;;;;5075312;28;20062;-82
2023/08/05 08:14:43;;;;;;;5.68;2.90;;;;;;;;;;5074339;28;20531;-83
2023/08/05 08:17:08;;;;;;;10.38;4.32;;;;;;;;;;5073038;28;20112;-82
2023/08/05 08:19:34;;;;;;;11.00;4.25;;;;;;;;;;5080906;28;20059;-82
2023/08/05 08:22:00;;;;;;;6.70;3.38;;;;;;;;;;5093808;28;20027;-82
2023/08/05 08:24:25;;;;;;;8.48;3.55;;;;;;;;;;5089385;28;20035;-82
2023/08/05 08:26:50;;;;;;;6.45;3.22;;;;;;;;;;5085198;28;20032;-83
2023/08/05 08:29:16;;;;;;;7.40;4.13;;;;;;;;;;5094184;28;20129;-82
2023/08/05 08:31:41;;;;;;;5.68;3.10;;;;;;;;;;5096259;28;20013;-83
2023/08/05 08:34:06;;;;;;;10.65;3.78;;;;;;;;;;5067424;28;20100;-82
2023/08/05 08:36:32;;;;;;;7.35;3.83;;;;;;;;;;5071806;28;20081;-82
2023/08/05 08:38:57;;;;;;;10.23;4.18;;;;;;;;;;5072261;28;20040;-83
2023/08/05 08:41:23;;;;;;;12.10;5.07;;;;;;;;;;5071078;28;20024;-82
2023/08/05 08:43:49;;;;;;;9.35;3.47;;;;;;;;;;5089116;28;20047;-83
2023/08/05 08:46:16;;;;;;;7.82;3.97;;;;;;;;;;5073488;28;20028;-83
2023/08/05 08:48:43;;;;;;;7.05;3.63;;;;;;;;;;5073736;28;20104;-83
2023/08/05 08:51:16;;;;;;;13.77;5.28;;;;;;;;;;5070900;28;20028;-83
2023/08/05 08:53:43;;;;;;;7.03;3.63;;;;;;;;;;5085387;28;20385;-82
2023/08/05 08:56:10;;;;;;;7.70;3.72;;;;;;;;;;5072060;28;20413;-82
2023/08/05 08:58:35;;;;;;;7.43;3.30;;;;;;;;;;5074464;28;20028;-82
2023/08/05 09:01:05;;;;;;;8.65;3.45;;;;;;;;;;5073981;28;20119;-83
2023/08/05 09:03:32;;;;;;;6.88;2.95;;;;;;;;;;5097978;28;20417;-82
2023/08/05 09:05:58;;;;;;;6.40;3.70;;;;;;;;;;5079518;28;20063;-83
2023/08/05 09:08:24;;;;;;;6.68;4.00;;;;;;;;;;5094087;28;20028;-82
2023/08/05 09:10:50;;;;;;;9.55;4.75;;;;;;;;;;5079308;28;20071;-83
2023/08/05 09:13:19;;;;;;;8.40;4.30;;;;;;;;;;5078487;28;20032;-81
2023/08/05 09:15:46;;;;;;;9.65;4.50;;;;;;;;;;5077878;28;20032;-82
2023/08/05 09:18:11;;;;;;;6.07;3.40;;;;;;;;;;5077593;28;20024;-82
2023/08/05 09:20:37;;;;;;;6.60;3.75;;;;;;;;;;5077981;28;20427;-82
2023/08/05 09:23:08;;;;;;;12.57;4.45;;;;;;;;;;5073307;28;20017;-82
2023/08/05 09:25:38;;;;;;;9.35;3.60;;;;;;;;;;5094135;28;20514;-82
2023/08/05 09:28:05;;;;;;;8.93;3.90;;;;;;;;;;5076416;28;20016;-82
2023/08/05 09:30:32;;;;;;;8.05;3.95;;;;;;;;;;5087698;28;20371;-82
2023/08/05 09:32:57;;;;;;;8.35;3.67;;;;;;;;;;5075918;28;20028;-83
2023/08/05 09:35:24;;;;;;;5.55;2.90;;;;;;;;;;5077213;28;20020;-82
2023/08/05 09:37:53;;;;;;;4.47;3.10;;;;;;;;;;5077165;28;20107;-82
2023/08/05 09:40:24;;;;;;;6.30;3.28;;;;;;;;;;5077174;28;20370;-82
2023/08/05 09:42:50;;;;;;;7.25;2.90;;;;;;;;;;5075805;28;20047;-82
2023/08/05 09:45:16;;;;;;;4.55;2.75;;;;;;;;;;5076989;28;20055;-83
2023/08/05 09:47:42;;;;;;;4.30;2.85;;;;;;;;;;5076843;28;20217;-82
2023/08/05 09:50:10;;;;;;;6.93;2.97;;;;;;;;;;5093565;28;20107;-83
2023/08/05 09:52:39;;;;;;;7.90;2.63;;;;;;;;;;5084971;28;20008;-83
2023/08/05 09:55:15;;;;;;;6.03;2.90;;;;;;;;;;5076713;28;20434;-83
2023/08/05 09:57:44;;;;;;;5.68;2.42;;;;;;;;;;5076832;28;20012;-82
2023/08/05 10:00:11;;;;;;;5.38;2.17;;;;;;;;;;5076930;28;20092;-82
2023/08/05 10:02:36;;;;;;;6.97;2.17;;;;;;;;;;5075994;28;20467;-83
2023/08/05 10:05:02;;;;;;;4.50;2.38;;;;;;;;;;5076523;28;20024;-82
2023/08/05 10:07:31;;;;;;;2.88;2.08;;;;;;;;;;5076243;28;20497;-82
2023/08/05 10:10:00;;;;;;;5.78;2.38;;;;;;;;;;5076867;28;20379;-82
2023/08/05 10:12:34;;;;;;;3.28;1.98;;;;;;;;;;5076522;28;20047;-82
2023/08/05 10:15:00;;;;;;;3.45;2.10;;;;;;;;;;5075947;28;20352;-81
2023/08/05 10:17:26;;;;;;;4.65;2.03;;;;;;;;;;5077077;28;20415;-82
2023/08/05 10:19:52;;;;;;;8.38;2.25;;;;;;;;;;5089785;28;20466;-82
2023/08/05 10:22:24;;;;;;;3.30;2.20;;;;;;;;;;5093994;28;20032;-82
2023/08/05 10:24:54;;;;;;;3.95;2.08;;;;;;;;;;5093743;28;20386;-83
2023/08/05 10:27:38;;;;;;;4.40;1.75;;;;;;;;;;5098084;28;20407;-83
2023/08/05 10:30:05;;;;;;;3.00;1.73;;;;;;;;;;5097211;28;20016;-82
2023/08/05 10:32:33;;;;;;;3.17;2.05;;;;;;;;;;5082448;28;20016;-82
2023/08/05 10:35:17;;;;;;;3.88;1.88;;;;;;;;;;5077026;28;20505;-82
2023/08/05 10:38:03;;;;;;;4.32;1.80;;;;;;;;;;5072868;28;20024;-82
2023/08/05 10:40:41;;;;;;;4.75;1.85;;;;;;;;;;5076404;28;20024;-83
2023/08/05 10:43:07;;;;;;;3.50;1.90;;;;;;;;;;5076764;28;20106;-82
2023/08/05 10:45:35;;;;;;;3.63;1.77;;;;;;;;;;5076125;28;20564;-82
2023/08/05 10:48:06;;;;;;;4.97;1.73;;;;;;;;;;5075697;28;20028;-82
2023/08/05 10:50:38;;;;;;;5.43;1.65;;;;;;;;;;5075806;28;20065;-82
2023/08/05 10:53:11;;;;;;;3.78;2.00;;;;;;;;;;5075503;28;20035;-82
2023/08/05 10:55:46;;;;;;;5.55;1.80;;;;;;;;;;5075016;28;20019;-82
2023/08/05 10:58:12;;;;;;;2.40;1.40;;;;;;;;;;5072341;28;20472;-82
2023/08/05 11:00:42;;;;;;;3.15;1.65;;;;;;;;;;5059342;28;20043;-82
2023/08/05 11:03:25;;;;;;;3.42;1.55;;;;;;;;;;5071864;28;20024;-81
2023/08/05 11:05:53;;;;;;;3.75;1.70;;;;;;;;;;5069230;28;20024;-82
2023/08/05 11:08:22;;;;;;;6.45;1.80;;;;;;;;;;5075276;28;20120;-82
2023/08/05 11:10:50;;;;;;;4.65;1.60;;;;;;;;;;5071006;28;20107;-82
2023/08/05 11:13:18;;;;;;;4.97;1.48;;;;;;;;;;5074165;28;20020;-81
2023/08/05 11:16:02;;;;;;;2.85;1.52;;;;;;;;;;5068096;28;20013;-83
2023/08/05 11:18:28;;;;;;;3.10;1.58;;;;;;;;;;5069940;28;20494;-82
2023/08/05 11:20:54;;;;;;;3.58;1.40;;;;;;;;;;5075224;28;20016;-82
2023/08/05 11:23:19;;;;;;;3.97;1.40;;;;;;;;;;5074516;28;20016;-82
2023/08/05 11:25:48;;;;;;;5.25;1.70;;;;;;;;;;5073880;28;20099;-81
2023/08/05 11:28:15;;;;;;;4.38;1.40;;;;;;;;;;5093371;28;20039;-82
2023/08/05 11:30:41;;;;;;;2.90;1.70;;;;;;;;;;5091136;28;20381;-82
2023/08/05 11:33:06;;;;;;;3.58;1.65;;;;;;;;;;5074400;28;20012;-82
2023/08/05 11:35:31;;;;;;;5.68;1.65;;;;;;;;;;5075018;28;20494;-82
2023/08/05 11:37:57;;;;;;;3.88;1.30;;;;;;;;;;5075779;28;20106;-82
2023/08/05 11:40:23;;;;;;;3.58;1.60;;;;;;;;;;5075040;28;20020;-82
2023/08/05 11:42:48;;;;;;;6.80;1.73;;;;;;;;;;5075121;28;20028;-82
2023/08/05 11:45:15;;;;;;;6.47;1.98;;;;;;;;;;5095378;28;20023;-82
2023/08/05 11:47:41;;;;;;;5.72;1.65;;;;;;;;;;5096719;28;20020;-82
2023/08/05 11:50:07;;;;;;;5.97;1.63;;;;;;;;;;5098482;28;20356;-82
2023/08/05 11:52:32;;;;;;;4.80;1.60;;;;;;;;;;5083315;28;20431;-82
2023/08/05 11:54:58;;;;;;;3.00;1.67;;;;;;;;;;5093930;28;20461;-82
2023/08/05 11:57:24;;;;;;;9.15;1.85;;;;;;;;;;5096267;28;20043;-82
2023/08/05 11:59:55;;;;;;;2.45;1.52;;;;;;;;;;5096338;28;20019;-82
2023/08/05 12:02:21;;;;;;;5.43;1.77;;;;;;;;;;5090247;28;20017;-82
2023/08/05 12:04:48;;;;;;;4.53;1.77;;;;;;;;;;5091995;28;20016;-82
2023/08/05 12:07:20;;;;;;;4.15;1.75;;;;;;;;;;5095240;28;20382;-83
2023/08/05 12:10:02;;;;;;;5.30;1.90;;;;;;;;;;5090102;28;20043;-83
2023/08/05 12:12:30;;;;;;;5.90;2.13;;;;;;;;;;5095203;28;20443;-82
2023/08/05 12:15:17;;;;;;;7.22;2.13;;;;;;;;;;5079583;28;20030;-83
2023/08/05 12:17:47;;;;;;;2.80;1.65;;;;;;;;;;5080358;28;20436;-83
2023/08/05 12:20:14;;;;;;;5.85;2.20;;;;;;;;;;5095204;28;20023;-83
2023/08/05 12:22:39;;;;;;;3.65;1.88;;;;;;;;;;5094704;28;20043;-82
2023/08/05 12:25:08;;;;;;;3.38;1.98;;;;;;;;;;5080681;28;20081;-83
2023/08/05 12:27:33;;;;;;;6.40;2.33;;;;;;;;;;5102721;28;20077;-83
2023/08/05 12:29:58;;;;;;;3.78;2.30;;;;;;;;;;5090626;28;20020;-83
2023/08/05 12:32:23;;;;;;;6.25;2.88;;;;;;;;;;5091889;28;20039;-83
2023/08/05 12:34:49;;;;;;;5.10;2.30;;;;;;;;;;5074356;28;20024;-83
2023/08/05 12:37:14;;;;;;;4.68;2.20;;;;;;;;;;5075950;28;20514;-83
2023/08/05 12:39:39;;;;;;;5.18;2.40;;;;;;;;;;5078501;28;20024;-82
2023/08/05 12:42:07;;;;;;;6.03;2.47;;;;;;;;;;5077373;28;20048;-83
2023/08/05 12:44:32;;;;;;;6.45;2.50;;;;;;;;;;5077695;28;20031;-83
2023/08/05 12:46:58;;;;;;;6.72;2.35;;;;;;;;;;5096255;28;20104;-83
2023/08/05 12:49:23;;;;;;;6.25;2.20;;;;;;;;;;5077899;28;20027;-82
2023/08/05 12:51:48;;;;;;;4.60;2.13;;;;;;;;;;5076528;28;20019;-82
2023/08/05 12:54:13;;;;;;;7.07;2.70;;;;;;;;;;5077480;28;20386;-83
2023/08/05 12:56:39;;;;;;;3.30;2.33;;;;;;;;;;5077579;28;20008;-82
2023/08/05 12:59:06;;;;;;;4.15;2.60;;;;;;;;;;5077675;28;20031;-82
2023/08/05 13:01:32;;;;;;;6.32;2.15;;;;;;;;;;5077611;28;20026;-81
2023/08/05 13:03:57;;;;;;;4.07;2.60;;;;;;;;;;5076526;28;20054;-81
2023/08/05 13:06:22;;;;;;;4.32;2.55;;;;;;;;;;5078004;28;20040;-83
2023/08/05 13:08:48;;;;;;;5.55;2.03;;;;;;;;;;5078035;28;20032;-83
2023/08/05 13:11:13;;;;;;;10.57;2.13;;;;;;;;;;5077930;28;20032;-83
2023/08/05 13:13:39;;;;;;;4.38;2.17;;;;;;;;;;5078191;28;20338;-83
2023/08/05 13:16:04;;;;;;;4.95;2.30;;;;;;;;;;5078539;28;20020;-83
2023/08/05 13:18:30;;;;;;;4.72;2.28;;;;;;;;;;5081918;28;20111;-83
2023/08/05 13:20:55;;;;;;;5.90;2.47;;;;;;;;;;5083220;28;20027;-83
2023/08/05 13:23:21;;;;;;;4.20;2.17;;;;;;;;;;5078419;28;20045;-82
2023/08/05 13:25:55;;;;;;;4.95;2.22;;;;;;;;;;5077753;28;20130;-83
2023/08/05 13:28:20;;;;;;;5.80;2.58;;;;;;;;;;5077713;28;20020;-83
2023/08/05 13:30:46;;;;;;;4.97;1.88;;;;;;;;;;5077387;28;20485;-82
2023/08/05 13:33:12;;;;;;;3.55;1.80;;;;;;;;;;5077565;28;20051;-83
2023/08/05 13:35:37;;;;;;;3.47;2.08;;;;;;;;;;5076638;28;20059;-83
2023/08/05 13:38:02;;;;;;;6.70;2.33;;;;;;;;;;5077141;28;20012;-83
2023/08/05 13:40:28;;;;;;;6.65;2.00;;;;;;;;;;5095779;28;20066;-83
2023/08/05 13:42:56;;;;;;;4.15;1.90;;;;;;;;;;5076963;28;20038;-83
2023/08/05 13:45:21;;;;;;;3.95;2.03;;;;;;;;;;5076409;28;20043;-83
2023/08/05 13:47:50;;;;;;;6.43;2.30;;;;;;;;;;5076740;28;20483;-83
2023/08/05 13:50:18;;;;;;;6.13;2.38;;;;;;;;;;5076233;28;20020;-83
2023/08/05 13:52:44;;;;;;;3.80;2.08;;;;;;;;;;5095056;28;20020;-84
2023/08/05 13:55:09;;;;;;;6.05;2.08;;;;;;;;;;5075685;28;20038;-83
2023/08/05 13:57:34;;;;;;;3.88;2.25;;;;;;;;;;5076544;28;20023;-83
2023/08/05 14:00:00;;;;;;;5.70;2.38;;;;;;;;;;5076382;28;20024;-82
2023/08/05 14:02:25;;;;;;;4.70;2.45;;;;;;;;;;5076323;28;20039;-84
2023/08/05 14:04:50;;;;;;;6.85;2.25;;;;;;;;;;5075605;28;20035;-82
2023/08/05 14:07:15;;;;;;;3.55;2.08;;;;;;;;;;5076436;28;20185;-82
2023/08/05 14:09:41;;;;;;;4.35;2.15;;;;;;;;;;5074987;28;20096;-84
2023/08/05 14:12:06;;;;;;;6.55;2.28;;;;;;;;;;5076177;28;20117;-84
2023/08/05 14:14:34;;;;;;;10.20;2.63;;;;;;;;;;5076180;28;20016;-83
2023/08/05 14:16:59;;;;;;;4.43;2.70;;;;;;;;;;5075982;28;20463;-83
2023/08/05 14:19:24;;;;;;;5.03;2.65;;;;;;;;;;5075772;28;20176;-83
2023/08/05 14:21:50;;;;;;;4.95;2.58;;;;;;;;;;5093995;28;20038;-83
2023/08/05 14:24:15;;;;;;;4.45;2.15;;;;;;;;;;5094380;28;20095;-83
2023/08/05 14:26:40;;;;;;;5.10;2.42;;;;;;;;;;5076121;28;20024;-84
2023/08/05 14:29:06;;;;;;;7.10;2.83;;;;;;;;;;5075124;28;20024;-83
2023/08/05 14:31:33;;;;;;;3.05;1.88;;;;;;;;;;5076978;28;20020;-83
2023/08/05 14:33:59;;;;;;;4.13;1.90;;;;;;;;;;5076170;28;20020;-83
2023/08/05 14:36:25;;;;;;;4.75;1.95;;;;;;;;;;5094306;28;20366;-83
2023/08/05 14:38:51;;;;;;;4.40;2.03;;;;;;;;;;5076275;28;20016;-84